sensor_id;sensor_type;location;lat;lon;timestamp;pressure;altitude;pressure_sealevel;temperature;humidity
49463;BME280;35357;51.722;0.500;2023-07-31T00:00:29;100615.21;;;17.27;100.00
49463;BME280;35357;51.722;0.500;2023-07-31T00:02:56;100609.81;;;17.46;100.00
49463;BME280;35357;51.722;0.500;2023-07-31T00:05:23;100602.29;;;16.32;100.00
49463;BME280;35357;51.722;0.500;2023-07-31T00:07:50;100597.92;;;17.31;100.00
49463;BME280;35357;51.722;0.500;2023-07-31T00:10:17;100597.85;;;17.32;100.00
49463;BME280;35357;51.722;0.500;2023-07-31T00:12:45;100597.89;;;16.89;100.00
49463;BME280;35357;51.722;0.500;2023-07-31T00:15:13;100592.41;;;17.10;100.00
49463;BME280;35357;51.722;0.500;2023-07-31T00:17:40;100592.69;;;16.95;100.00
49463;BME280;35357;51.722;0.500;2023-07-31T00:20:09;100589.45;;;16.94;100.00
49463;BME280;35357;51.722;0.500;2023-07-31T00:22:36;100580.20;;;17.22;100.00
49463;BME280;35357;51.722;0.500;2023-07-31T00:25:03;100580.67;;;16.52;100.00
49463;BME280;35357;51.722;0.500;2023-07-31T00:27:30;100578.27;;;17.23;100.00
49463;BME280;35357;51.722;0.500;2023-07-31T00:29:58;100575.66;;;16.99;100.00
49463;BME280;35357;51.722;0.500;2023-07-31T00:32:25;100575.26;;;17.69;100.00
49463;BME280;35357;51.722;0.500;2023-07-31T00:34:52;100569.46;;;17.58;100.00
49463;BME280;35357;51.722;0.500;2023-07-31T00:37:19;100568.80;;;17.81;100.00
49463;BME280;35357;51.722;0.500;2023-07-31T00:39:46;100562.18;;;17.06;100.00
49463;BME280;35357;51.722;0.500;2023-07-31T00:42:14;100559.51;;;16.93;100.00
49463;BME280;35357;51.722;0.500;2023-07-31T00:44:41;100563.94;;;16.80;100.00
49463;BME280;35357;51.722;0.500;2023-07-31T00:47:08;100555.75;;;16.93;100.00
49463;BME280;35357;51.722;0.500;2023-07-31T00:49:36;100558.73;;;16.65;100.00
49463;BME280;35357;51.722;0.500;2023-07-31T00:52:04;100550.64;;;17.10;100.00
49463;BME280;35357;51.722;0.500;2023-07-31T00:54:31;100543.68;;;16.77;100.00
49463;BME280;35357;51.722;0.500;2023-07-31T00:57:00;100548.88;;;17.47;100.00
49463;BME280;35357;51.722;0.500;2023-07-31T00:59:26;100541.25;;;17.03;100.00
49463;BME280;35357;51.722;0.500;2023-07-31T01:01:53;100539.69;;;16.50;100.00
49463;BME280;35357;51.722;0.500;2023-07-31T01:04:21;100533.05;;;16.78;100.00
49463;BME280;35357;51.722;0.500;2023-07-31T01:06:53;100528.29;;;16.64;100.00
49463;BME280;35357;51.722;0.500;2023-07-31T01:09:30;100531.04;;;16.80;100.00
49463;BME280;35357;51.722;0.500;2023-07-31T01:12:01;100530.37;;;16.22;100.00
49463;BME280;35357;51.722;0.500;2023-07-31T01:14:29;100526.33;;;16.13;100.00
49463;BME280;35357;51.722;0.500;2023-07-31T01:16:57;100526.96;;;16.12;100.00
49463;BME280;35357;51.722;0.500;2023-07-31T01:19:25;100524.19;;;16.16;100.00
49463;BME280;35357;51.722;0.500;2023-07-31T01:22:09;100519.53;;;16.66;100.00
49463;BME280;35357;51.722;0.500;2023-07-31T01:24:49;100505.81;;;16.59;100.00
49463;BME280;35357;51.722;0.500;2023-07-31T01:27:25;100496.17;;;16.77;100.00
49463;BME280;35357;51.722;0.500;2023-07-31T01:29:59;100490.90;;;17.35;100.00
49463;BME280;35357;51.722;0.500;2023-07-31T01:32:28;100486.97;;;16.91;100.00
49463;BME280;35357;51.722;0.500;2023-07-31T01:34:58;100490.39;;;16.44;100.00
49463;BME280;35357;51.722;0.500;2023-07-31T01:37:28;100477.94;;;17.14;100.00
49463;BME280;35357;51.722;0.500;2023-07-31T01:39:55;100481.06;;;17.24;100.00
49463;BME280;35357;51.722;0.500;2023-07-31T01:42:22;100473.52;;;16.74;100.00
49463;BME280;35357;51.722;0.500;2023-07-31T01:44:49;100466.67;;;17.05;100.00
49463;BME280;35357;51.722;0.500;2023-07-31T01:47:15;100465.20;;;16.66;100.00
49463;BME280;35357;51.722;0.500;2023-07-31T01:49:42;100459.41;;;17.03;100.00
49463;BME280;35357;51.722;0.500;2023-07-31T01:52:09;100457.08;;;17.15;100.00
49463;BME280;35357;51.722;0.500;2023-07-31T01:54:36;100457.24;;;16.56;100.00
49463;BME280;35357;51.722;0.500;2023-07-31T01:57:03;100445.23;;;16.11;100.00
49463;BME280;35357;51.722;0.500;2023-07-31T01:59:30;100437.15;;;16.68;100.00
49463;BME280;35357;51.722;0.500;2023-07-31T02:01:57;100438.02;;;16.44;100.00
49463;BME280;35357;51.722;0.500;2023-07-31T02:04:24;100431.67;;;17.38;100.00
49463;BME280;35357;51.722;0.500;2023-07-31T02:06:53;100420.81;;;17.13;100.00
49463;BME280;35357;51.722;0.500;2023-07-31T02:09:20;100419.14;;;15.85;100.00
49463;BME280;35357;51.722;0.500;2023-07-31T02:11:47;100417.20;;;17.48;100.00
49463;BME280;35357;51.722;0.500;2023-07-31T02:14:14;100412.39;;;17.44;100.00
49463;BME280;35357;51.722;0.500;2023-07-31T02:16:41;100407.11;;;17.06;100.00
49463;BME280;35357;51.722;0.500;2023-07-31T02:19:07;100400.69;;;18.08;100.00
49463;BME280;35357;51.722;0.500;2023-07-31T02:21:35;100398.71;;;17.06;100.00
49463;BME280;35357;51.722;0.500;2023-07-31T02:24:03;100399.81;;;17.50;100.00
49463;BME280;35357;51.722;0.500;2023-07-31T02:26:30;100392.42;;;16.73;100.00
49463;BME280;35357;51.722;0.500;2023-07-31T02:28:58;100386.68;;;16.62;100.00
49463;BME280;35357;51.722;0.500;2023-07-31T02:31:24;100391.01;;;16.88;100.00
49463;BME280;35357;51.722;0.500;2023-07-31T02:33:51;100384.23;;;17.40;100.00
49463;BME280;35357;51.722;0.500;2023-07-31T02:36:18;100380.38;;;18.27;100.00
49463;BME280;35357;51.722;0.500;2023-07-31T02:38:45;100386.79;;;17.98;100.00
49463;BME280;35357;51.722;0.500;2023-07-31T02:41:11;100382.72;;;17.74;100.00
49463;BME280;35357;51.722;0.500;2023-07-31T02:43:38;100377.34;;;16.86;100.00
49463;BME280;35357;51.722;0.500;2023-07-31T02:46:05;100375.77;;;17.62;100.00
49463;BME280;35357;51.722;0.500;2023-07-31T02:48:32;100376.15;;;17.70;100.00
49463;BME280;35357;51.722;0.500;2023-07-31T02:50:59;100370.75;;;17.46;100.00
49463;BME280;35357;51.722;0.500;2023-07-31T02:53:26;100366.33;;;17.79;100.00
49463;BME280;35357;51.722;0.500;2023-07-31T02:55:53;100363.89;;;17.13;100.00
49463;BME280;35357;51.722;0.500;2023-07-31T02:58:20;100365.57;;;17.39;100.00
49463;BME280;35357;51.722;0.500;2023-07-31T03:00:48;100359.14;;;16.16;100.00
49463;BME280;35357;51.722;0.500;2023-07-31T03:03:15;100355.46;;;16.95;100.00
49463;BME280;35357;51.722;0.500;2023-07-31T03:05:42;100350.11;;;17.37;100.00
49463;BME280;35357;51.722;0.500;2023-07-31T03:08:09;100342.25;;;16.26;100.00
49463;BME280;35357;51.722;0.500;2023-07-31T03:10:36;100343.87;;;16.42;100.00
49463;BME280;35357;51.722;0.500;2023-07-31T03:13:02;100339.58;;;16.85;100.00
49463;BME280;35357;51.722;0.500;2023-07-31T03:15:29;100339.28;;;16.74;100.00
49463;BME280;35357;51.722;0.500;2023-07-31T03:17:56;100334.88;;;16.62;100.00
49463;BME280;35357;51.722;0.500;2023-07-31T03:20:28;100338.23;;;17.04;100.00
49463;BME280;35357;51.722;0.500;2023-07-31T03:22:54;100347.73;;;17.32;100.00
49463;BME280;35357;51.722;0.500;2023-07-31T03:25:21;100345.71;;;17.40;100.00
49463;BME280;35357;51.722;0.500;2023-07-31T03:27:49;100347.25;;;17.47;100.00
49463;BME280;35357;51.722;0.500;2023-07-31T03:30:15;100346.22;;;17.23;100.00
49463;BME280;35357;51.722;0.500;2023-07-31T03:32:42;100342.96;;;18.05;100.00
49463;BME280;35357;51.722;0.500;2023-07-31T03:35:09;100348.87;;;17.03;100.00
49463;BME280;35357;51.722;0.500;2023-07-31T03:37:36;100348.02;;;16.90;100.00
49463;BME280;35357;51.722;0.500;2023-07-31T03:40:03;100349.62;;;17.26;100.00
49463;BME280;35357;51.722;0.500;2023-07-31T03:42:30;100346.09;;;17.59;100.00
49463;BME280;35357;51.722;0.500;2023-07-31T03:44:57;100339.47;;;16.36;100.00
49463;BME280;35357;51.722;0.500;2023-07-31T03:47:24;100334.69;;;16.67;100.00
49463;BME280;35357;51.722;0.500;2023-07-31T03:49:52;100329.90;;;16.36;100.00
49463;BME280;35357;51.722;0.500;2023-07-31T03:52:18;100327.02;;;16.88;100.00
49463;BME280;35357;51.722;0.500;2023-07-31T03:54:45;100323.53;;;16.50;100.00
49463;BME280;35357;51.722;0.500;2023-07-31T03:57:13;100325.74;;;16.92;100.00
49463;BME280;35357;51.722;0.500;2023-07-31T03:59:40;100327.86;;;16.43;100.00
49463;BME280;35357;51.722;0.500;2023-07-31T04:02:07;100324.26;;;16.70;100.00
49463;BME280;35357;51.722;0.500;2023-07-31T04:04:34;100326.01;;;16.30;100.00
49463;BME280;35357;51.722;0.500;2023-07-31T04:07:02;100320.59;;;17.24;100.00
49463;BME280;35357;51.722;0.500;2023-07-31T04:09:29;100317.54;;;16.88;100.00
49463;BME280;35357;51.722;0.500;2023-07-31T04:11:56;100315.87;;;17.04;100.00
49463;BME280;35357;51.722;0.500;2023-07-31T04:14:23;100312.61;;;16.76;100.00
49463;BME280;35357;51.722;0.500;2023-07-31T04:16:50;100312.84;;;17.59;100.00
49463;BME280;35357;51.722;0.500;2023-07-31T04:19:18;100313.19;;;16.71;100.00
49463;BME280;35357;51.722;0.500;2023-07-31T04:21:44;100314.77;;;17.05;100.00
49463;BME280;35357;51.722;0.500;2023-07-31T04:24:11;100319.20;;;17.31;100.00
49463;BME280;35357;51.722;0.500;2023-07-31T04:26:39;100316.32;;;17.56;100.00
49463;BME280;35357;51.722;0.500;2023-07-31T04:29:05;100321.98;;;17.23;100.00
49463;BME280;35357;51.722;0.500;2023-07-31T04:31:33;100315.61;;;17.54;100.00
49463;BME280;35357;51.722;0.500;2023-07-31T04:34:00;100318.55;;;16.50;100.00
49463;BME280;35357;51.722;0.500;2023-07-31T04:36:26;100317.89;;;16.62;100.00
49463;BME280;35357;51.722;0.500;2023-07-31T04:38:53;100312.64;;;17.85;100.00
49463;BME280;35357;51.722;0.500;2023-07-31T04:41:21;100309.22;;;17.68;100.00
49463;BME280;35357;51.722;0.500;2023-07-31T04:43:48;100307.60;;;17.81;100.00
49463;BME280;35357;51.722;0.500;2023-07-31T04:46:16;100308.06;;;17.05;100.00
49463;BME280;35357;51.722;0.500;2023-07-31T04:48:43;100302.51;;;17.48;100.00
49463;BME280;35357;51.722;0.500;2023-07-31T04:51:10;100297.98;;;17.99;100.00
49463;BME280;35357;51.722;0.500;2023-07-31T04:53:37;100291.64;;;17.21;100.00
49463;BME280;35357;51.722;0.500;2023-07-31T04:56:04;100291.43;;;16.35;100.00
49463;BME280;35357;51.722;0.500;2023-07-31T04:58:31;100292.93;;;17.74;100.00
49463;BME280;35357;51.722;0.500;2023-07-31T05:00:58;100297.30;;;16.71;100.00
49463;BME280;35357;51.722;0.500;2023-07-31T05:03:25;100294.74;;;15.97;100.00
49463;BME280;35357;51.722;0.500;2023-07-31T05:05:51;100288.63;;;17.31;100.00
49463;BME280;35357;51.722;0.500;2023-07-31T05:08:18;100284.63;;;17.19;100.00
49463;BME280;35357;51.722;0.500;2023-07-31T05:10:45;100287.32;;;17.87;100.00
49463;BME280;35357;51.722;0.500;2023-07-31T05:13:12;100285.96;;;18.01;100.00
49463;BME280;35357;51.722;0.500;2023-07-31T05:15:41;100283.36;;;18.25;100.00
49463;BME280;35357;51.722;0.500;2023-07-31T05:18:08;100291.97;;;16.74;100.00
49463;BME280;35357;51.722;0.500;2023-07-31T05:20:34;100292.27;;;18.52;100.00
49463;BME280;35357;51.722;0.500;2023-07-31T05:23:01;100296.43;;;17.60;100.00
49463;BME280;35357;51.722;0.500;2023-07-31T05:25:28;100300.55;;;18.29;100.00
49463;BME280;35357;51.722;0.500;2023-07-31T05:27:56;100301.23;;;17.77;100.00
49463;BME280;35357;51.722;0.500;2023-07-31T05:30:23;100303.28;;;17.19;100.00
49463;BME280;35357;51.722;0.500;2023-07-31T05:32:50;100297.30;;;18.19;100.00
49463;BME280;35357;51.722;0.500;2023-07-31T05:35:17;100293.60;;;18.74;100.00
49463;BME280;35357;51.722;0.500;2023-07-31T05:37:44;100297.61;;;18.48;100.00
49463;BME280;35357;51.722;0.500;2023-07-31T05:40:11;100293.12;;;17.98;100.00
49463;BME280;35357;51.722;0.500;2023-07-31T05:42:38;100290.04;;;18.11;100.00
49463;BME280;35357;51.722;0.500;2023-07-31T05:45:06;100290.90;;;17.16;100.00
49463;BME280;35357;51.722;0.500;2023-07-31T05:47:33;100287.26;;;18.24;100.00
49463;BME280;35357;51.722;0.500;2023-07-31T05:50:00;100286.89;;;17.63;100.00
49463;BME280;35357;51.722;0.500;2023-07-31T05:52:28;100288.68;;;17.96;100.00
49463;BME280;35357;51.722;0.500;2023-07-31T05:54:55;100292.38;;;17.62;100.00
49463;BME280;35357;51.722;0.500;2023-07-31T05:57:22;100295.48;;;17.32;100.00
49463;BME280;35357;51.722;0.500;2023-07-31T05:59:49;100297.73;;;16.87;100.00
49463;BME280;35357;51.722;0.500;2023-07-31T06:02:16;100286.38;;;18.32;100.00
49463;BME280;35357;51.722;0.500;2023-07-31T06:04:43;100286.12;;;18.54;100.00
49463;BME280;35357;51.722;0.500;2023-07-31T06:07:11;100280.92;;;18.49;100.00
49463;BME280;35357;51.722;0.500;2023-07-31T06:09:38;100278.45;;;18.53;100.00
49463;BME280;35357;51.722;0.500;2023-07-31T06:12:05;100275.09;;;19.05;100.00
49463;BME280;35357;51.722;0.500;2023-07-31T06:14:32;100272.16;;;18.16;100.00
49463;BME280;35357;51.722;0.500;2023-07-31T06:16:59;100277.46;;;18.20;100.00
49463;BME280;35357;51.722;0.500;2023-07-31T06:19:26;100274.50;;;18.50;100.00
49463;BME280;35357;51.722;0.500;2023-07-31T06:21:54;100277.69;;;18.23;100.00
49463;BME280;35357;51.722;0.500;2023-07-31T06:24:21;100275.34;;;18.13;100.00
49463;BME280;35357;51.722;0.500;2023-07-31T06:26:48;100275.57;;;17.54;100.00
49463;BME280;35357;51.722;0.500;2023-07-31T06:29:16;100269.34;;;18.06;100.00
49463;BME280;35357;51.722;0.500;2023-07-31T06:31:43;100272.79;;;18.33;100.00
49463;BME280;35357;51.722;0.500;2023-07-31T06:34:09;100270.58;;;18.01;100.00
49463;BME280;35357;51.722;0.500;2023-07-31T06:36:36;100270.69;;;18.03;100.00
49463;BME280;35357;51.722;0.500;2023-07-31T06:39:03;100272.89;;;18.23;100.00
49463;BME280;35357;51.722;0.500;2023-07-31T06:41:30;100272.63;;;17.86;100.00
49463;BME280;35357;51.722;0.500;2023-07-31T06:43:57;100273.08;;;18.55;100.00
49463;BME280;35357;51.722;0.500;2023-07-31T06:46:24;100272.41;;;18.94;100.00
49463;BME280;35357;51.722;0.500;2023-07-31T06:48:51;100273.31;;;17.31;100.00
49463;BME280;35357;51.722;0.500;2023-07-31T06:51:17;100269.73;;;17.90;100.00
49463;BME280;35357;51.722;0.500;2023-07-31T06:53:44;100271.01;;;18.08;100.00
49463;BME280;35357;51.722;0.500;2023-07-31T06:56:11;100271.13;;;18.01;100.00
49463;BME280;35357;51.722;0.500;2023-07-31T06:58:39;100277.90;;;17.59;100.00
49463;BME280;35357;51.722;0.500;2023-07-31T07:01:06;100259.69;;;17.40;100.00
49463;BME280;35357;51.722;0.500;2023-07-31T07:03:33;100260.68;;;18.91;100.00
49463;BME280;35357;51.722;0.500;2023-07-31T07:06:00;100255.35;;;18.58;100.00
49463;BME280;35357;51.722;0.500;2023-07-31T07:08:28;100257.13;;;18.57;100.00
49463;BME280;35357;51.722;0.500;2023-07-31T07:10:55;100254.20;;;18.73;100.00
49463;BME280;35357;51.722;0.500;2023-07-31T07:13:22;100251.55;;;18.88;100.00
49463;BME280;35357;51.722;0.500;2023-07-31T07:15:49;100249.09;;;18.59;100.00
49463;BME280;35357;51.722;0.500;2023-07-31T07:18:16;100248.69;;;18.44;100.00
49463;BME280;35357;51.722;0.500;2023-07-31T07:20:50;100248.16;;;18.02;100.00
49463;BME280;35357;51.722;0.500;2023-07-31T07:23:17;100250.73;;;17.73;100.00
49463;BME280;35357;51.722;0.500;2023-07-31T07:25:46;100253.46;;;18.66;100.00
49463;BME280;35357;51.722;0.500;2023-07-31T07:28:14;100253.49;;;18.57;100.00
49463;BME280;35357;51.722;0.500;2023-07-31T07:30:41;100253.09;;;18.72;100.00
49463;BME280;35357;51.722;0.500;2023-07-31T07:33:08;100248.76;;;18.25;100.00
49463;BME280;35357;51.722;0.500;2023-07-31T07:35:34;100245.78;;;19.83;100.00
49463;BME280;35357;51.722;0.500;2023-07-31T07:38:01;100245.45;;;19.48;100.00
49463;BME280;35357;51.722;0.500;2023-07-31T07:40:29;100243.11;;;19.48;100.00
49463;BME280;35357;51.722;0.500;2023-07-31T07:42:55;100242.78;;;19.61;100.00
49463;BME280;35357;51.722;0.500;2023-07-31T07:45:22;100239.76;;;19.31;100.00
49463;BME280;35357;51.722;0.500;2023-07-31T07:47:49;100233.57;;;20.25;100.00
49463;BME280;35357;51.722;0.500;2023-07-31T07:50:16;100229.69;;;19.05;100.00
49463;BME280;35357;51.722;0.500;2023-07-31T07:52:44;100226.04;;;19.41;100.00
49463;BME280;35357;51.722;0.500;2023-07-31T07:55:11;100222.92;;;18.88;100.00
49463;BME280;35357;51.722;0.500;2023-07-31T07:57:37;100226.57;;;19.93;100.00
49463;BME280;35357;51.722;0.500;2023-07-31T08:00:05;100226.98;;;18.94;100.00
49463;BME280;35357;51.722;0.500;2023-07-31T08:02:32;100229.98;;;19.71;100.00
49463;BME280;35357;51.722;0.500;2023-07-31T08:04:59;100222.97;;;19.74;100.00
49463;BME280;35357;51.722;0.500;2023-07-31T08:07:26;100224.83;;;18.64;100.00
49463;BME280;35357;51.722;0.500;2023-07-31T08:09:54;100220.70;;;19.58;100.00
49463;BME280;35357;51.722;0.500;2023-07-31T08:12:21;100222.14;;;18.39;100.00
49463;BME280;35357;51.722;0.500;2023-07-31T08:14:49;100219.98;;;17.92;100.00
49463;BME280;35357;51.722;0.500;2023-07-31T08:17:16;100215.77;;;18.16;100.00
49463;BME280;35357;51.722;0.500;2023-07-31T08:19:43;100218.65;;;17.92;100.00
49463;BME280;35357;51.722;0.500;2023-07-31T08:22:10;100218.72;;;18.69;100.00
49463;BME280;35357;51.722;0.500;2023-07-31T08:24:37;100221.12;;;17.31;100.00
49463;BME280;35357;51.722;0.500;2023-07-31T08:27:06;100223.85;;;18.05;100.00
49463;BME280;35357;51.722;0.500;2023-07-31T08:29:33;100214.90;;;16.83;100.00
49463;BME280;35357;51.722;0.500;2023-07-31T08:32:00;100214.59;;;17.35;100.00
49463;BME280;35357;51.722;0.500;2023-07-31T08:34:27;100206.53;;;17.95;100.00
49463;BME280;35357;51.722;0.500;2023-07-31T08:36:54;100203.79;;;17.36;100.00
49463;BME280;35357;51.722;0.500;2023-07-31T08:39:22;100200.86;;;18.30;100.00
49463;BME280;35357;51.722;0.500;2023-07-31T08:41:49;100205.61;;;18.05;100.00
49463;BME280;35357;51.722;0.500;2023-07-31T08:44:16;100211.87;;;17.90;100.00
49463;BME280;35357;51.722;0.500;2023-07-31T08:46:44;100210.58;;;18.05;100.00
49463;BME280;35357;51.722;0.500;2023-07-31T08:49:13;100218.57;;;16.98;100.00
49463;BME280;35357;51.722;0.500;2023-07-31T08:51:41;100226.36;;;17.39;100.00
49463;BME280;35357;51.722;0.500;2023-07-31T08:54:08;100224.64;;;18.78;100.00
49463;BME280;35357;51.722;0.500;2023-07-31T08:56:36;100219.41;;;18.19;100.00
49463;BME280;35357;51.722;0.500;2023-07-31T08:59:04;100218.46;;;17.77;100.00
49463;BME280;35357;51.722;0.500;2023-07-31T09:01:33;100212.23;;;17.75;100.00
49463;BME280;35357;51.722;0.500;2023-07-31T09:04:04;100209.42;;;17.53;100.00
49463;BME280;35357;51.722;0.500;2023-07-31T09:06:32;100204.68;;;17.21;100.00
49463;BME280;35357;51.722;0.500;2023-07-31T09:09:00;100201.29;;;17.29;100.00
49463;BME280;35357;51.722;0.500;2023-07-31T09:11:27;100199.88;;;17.15;100.00
49463;BME280;35357;51.722;0.500;2023-07-31T09:13:57;100194.19;;;17.84;100.00
49463;BME280;35357;51.722;0.500;2023-07-31T09:16:28;100194.33;;;16.42;100.00
49463;BME280;35357;51.722;0.500;2023-07-31T09:18:56;100204.56;;;16.88;100.00
49463;BME280;35357;51.722;0.500;2023-07-31T09:21:23;100203.64;;;17.52;100.00
49463;BME280;35357;51.722;0.500;2023-07-31T09:23:50;100208.24;;;16.93;100.00
49463;BME280;35357;51.722;0.500;2023-07-31T09:26:29;100206.13;;;17.28;100.00
49463;BME280;35357;51.722;0.500;2023-07-31T09:28:57;100207.29;;;18.39;100.00
49463;BME280;35357;51.722;0.500;2023-07-31T09:31:33;100203.73;;;18.74;100.00
49463;BME280;35357;51.722;0.500;2023-07-31T09:34:00;100192.19;;;18.70;100.00
49463;BME280;35357;51.722;0.500;2023-07-31T09:36:29;100200.63;;;18.72;100.00
49463;BME280;35357;51.722;0.500;2023-07-31T09:39:02;100201.80;;;18.77;100.00
49463;BME280;35357;51.722;0.500;2023-07-31T09:41:30;100189.04;;;19.52;100.00
49463;BME280;35357;51.722;0.500;2023-07-31T09:43:57;100187.72;;;19.58;100.00
49463;BME280;35357;51.722;0.500;2023-07-31T09:46:27;100191.49;;;19.11;100.00
49463;BME280;35357;51.722;0.500;2023-07-31T09:49:07;100194.17;;;21.00;100.00
49463;BME280;35357;51.722;0.500;2023-07-31T09:51:35;100193.32;;;19.53;100.00
49463;BME280;35357;51.722;0.500;2023-07-31T09:54:02;100189.27;;;19.80;100.00
49463;BME280;35357;51.722;0.500;2023-07-31T09:56:30;100186.82;;;20.43;100.00
49463;BME280;35357;51.722;0.500;2023-07-31T09:58:59;100177.90;;;18.93;100.00
49463;BME280;35357;51.722;0.500;2023-07-31T10:01:26;100163.89;;;20.38;100.00
49463;BME280;35357;51.722;0.500;2023-07-31T10:03:54;100157.50;;;20.35;100.00
49463;BME280;35357;51.722;0.500;2023-07-31T10:06:23;100162.83;;;19.72;100.00
49463;BME280;35357;51.722;0.500;2023-07-31T10:08:51;100160.58;;;19.84;100.00
49463;BME280;35357;51.722;0.500;2023-07-31T10:11:19;100165.66;;;20.58;100.00
49463;BME280;35357;51.722;0.500;2023-07-31T10:13:47;100164.33;;;20.54;100.00
49463;BME280;35357;51.722;0.500;2023-07-31T10:16:14;100163.82;;;19.62;100.00
49463;BME280;35357;51.722;0.500;2023-07-31T10:18:43;100167.51;;;20.62;100.00
49463;BME280;35357;51.722;0.500;2023-07-31T10:21:11;100165.96;;;20.25;100.00
49463;BME280;35357;51.722;0.500;2023-07-31T10:23:39;100161.26;;;19.58;100.00
49463;BME280;35357;51.722;0.500;2023-07-31T10:26:07;100140.29;;;19.75;100.00
49463;BME280;35357;51.722;0.500;2023-07-31T10:28:36;100123.32;;;21.09;100.00
49463;BME280;35357;51.722;0.500;2023-07-31T10:31:04;100143.80;;;20.42;100.00
49463;BME280;35357;51.722;0.500;2023-07-31T10:33:32;100136.28;;;19.80;100.00
49463;BME280;35357;51.722;0.500;2023-07-31T10:36:18;100129.48;;;20.58;100.00
49463;BME280;35357;51.722;0.500;2023-07-31T10:38:49;100126.58;;;21.43;100.00
49463;BME280;35357;51.722;0.500;2023-07-31T10:41:16;100127.53;;;20.66;100.00
49463;BME280;35357;51.722;0.500;2023-07-31T10:43:46;100117.01;;;21.08;100.00
49463;BME280;35357;51.722;0.500;2023-07-31T10:46:14;100120.71;;;20.20;100.00
49463;BME280;35357;51.722;0.500;2023-07-31T10:48:41;100120.59;;;21.04;100.00
49463;BME280;35357;51.722;0.500;2023-07-31T10:51:10;100129.97;;;20.71;100.00
49463;BME280;35357;51.722;0.500;2023-07-31T10:53:39;100137.56;;;20.39;100.00
49463;BME280;35357;51.722;0.500;2023-07-31T10:56:07;100136.54;;;20.41;100.00
49463;BME280;35357;51.722;0.500;2023-07-31T10:58:36;100137.28;;;20.28;100.00
49463;BME280;35357;51.722;0.500;2023-07-31T11:01:04;100135.06;;;20.71;100.00
49463;BME280;35357;51.722;0.500;2023-07-31T11:03:49;100144.19;;;20.66;100.00
49463;BME280;35357;51.722;0.500;2023-07-31T11:06:16;100148.01;;;20.70;100.00
49463;BME280;35357;51.722;0.500;2023-07-31T11:08:44;100155.37;;;19.12;100.00
49463;BME280;35357;51.722;0.500;2023-07-31T11:11:14;100155.31;;;19.72;100.00
49463;BME280;35357;51.722;0.500;2023-07-31T11:13:44;100140.80;;;20.72;100.00
49463;BME280;35357;51.722;0.500;2023-07-31T11:16:12;100138.78;;;20.80;100.00
49463;BME280;35357;51.722;0.500;2023-07-31T11:18:40;100132.05;;;20.62;100.00
49463;BME280;35357;51.722;0.500;2023-07-31T11:21:08;100126.00;;;21.29;100.00
49463;BME280;35357;51.722;0.500;2023-07-31T11:23:37;100120.75;;;20.22;100.00
49463;BME280;35357;51.722;0.500;2023-07-31T11:26:05;100115.95;;;19.77;100.00
49463;BME280;35357;51.722;0.500;2023-07-31T11:28:34;100114.30;;;18.90;100.00
49463;BME280;35357;51.722;0.500;2023-07-31T11:31:02;100106.87;;;19.01;100.00
49463;BME280;35357;51.722;0.500;2023-07-31T11:33:29;100097.38;;;19.24;100.00
49463;BME280;35357;51.722;0.500;2023-07-31T11:35:57;100101.70;;;20.50;100.00
49463;BME280;35357;51.722;0.500;2023-07-31T11:38:25;100097.01;;;19.03;100.00
49463;BME280;35357;51.722;0.500;2023-07-31T11:40:53;100101.18;;;19.08;100.00
49463;BME280;35357;51.722;0.500;2023-07-31T11:43:21;100102.27;;;18.99;100.00
49463;BME280;35357;51.722;0.500;2023-07-31T11:45:50;100119.14;;;18.76;100.00
49463;BME280;35357;51.722;0.500;2023-07-31T11:48:20;100113.97;;;19.66;100.00
49463;BME280;35357;51.722;0.500;2023-07-31T11:50:49;100107.81;;;19.12;100.00
49463;BME280;35357;51.722;0.500;2023-07-31T11:53:20;100105.86;;;19.38;100.00
49463;BME280;35357;51.722;0.500;2023-07-31T11:55:48;100099.37;;;18.28;100.00
49463;BME280;35357;51.722;0.500;2023-07-31T11:58:16;100096.57;;;17.86;100.00
49463;BME280;35357;51.722;0.500;2023-07-31T12:00:45;100094.14;;;18.56;100.00
49463;BME280;35357;51.722;0.500;2023-07-31T12:03:13;100100.34;;;18.76;100.00
49463;BME280;35357;51.722;0.500;2023-07-31T12:05:41;100101.20;;;19.47;98.60
49463;BME280;35357;51.722;0.500;2023-07-31T12:08:11;100113.05;;;18.93;99.93
49463;BME280;35357;51.722;0.500;2023-07-31T12:10:39;100118.28;;;18.12;100.00
49463;BME280;35357;51.722;0.500;2023-07-31T12:13:09;100122.45;;;19.10;100.00
49463;BME280;35357;51.722;0.500;2023-07-31T12:15:38;100120.53;;;18.20;100.00
49463;BME280;35357;51.722;0.500;2023-07-31T12:18:07;100126.80;;;18.25;100.00
49463;BME280;35357;51.722;0.500;2023-07-31T12:20:34;100130.64;;;18.07;100.00
49463;BME280;35357;51.722;0.500;2023-07-31T12:23:02;100127.91;;;18.61;99.67
49463;BME280;35357;51.722;0.500;2023-07-31T12:25:30;100128.42;;;18.63;97.28
49463;BME280;35357;51.722;0.500;2023-07-31T12:27:58;100131.72;;;18.22;100.00
49463;BME280;35357;51.722;0.500;2023-07-31T12:30:27;100133.76;;;18.69;98.13
49463;BME280;35357;51.722;0.500;2023-07-31T12:32:54;100121.42;;;19.04;97.12
49463;BME280;35357;51.722;0.500;2023-07-31T12:35:22;100120.89;;;18.33;97.62
49463;BME280;35357;51.722;0.500;2023-07-31T12:37:49;100119.17;;;19.40;95.48
49463;BME280;35357;51.722;0.500;2023-07-31T12:40:17;100118.84;;;18.51;98.22
49463;BME280;35357;51.722;0.500;2023-07-31T12:42:44;100116.08;;;18.70;96.57